Time;durP1;ratioP1;P1;durP2;ratioP2;P2;SDS_P1;SDS_P2;PMS_P1;PMS_P2;Temp;Humidity;BMP_temperature;BMP_pressure;BME280_temperature;BME280_humidity;BME280_pressure;Samples;Min_cycle;Max_cycle;Signal;HPM_P1;HPM_P2
2022/07/04 00:00:06;;;;;;;0.90;0.60;;;;;;;28.13;43.21;99251.97;5102626;28;20052;-70
2022/07/04 00:02:32;;;;;;;0.98;0.63;;;;;;;28.09;43.27;99243.63;5110565;28;20036;-71
2022/07/04 00:04:57;;;;;;;0.73;0.50;;;;;;;28.11;43.28;99246.78;5101470;28;20044;-70
2022/07/04 00:07:22;;;;;;;1.02;0.65;;;;;;;28.10;43.51;99239.56;5096744;28;20384;-71
2022/07/04 00:09:48;;;;;;;1.02;0.55;;;;;;;28.12;43.39;99247.56;5110443;28;20048;-70
2022/07/04 00:12:14;;;;;;;1.13;0.73;;;;;;;28.13;43.32;99246.34;5099181;28;20520;-71
2022/07/04 00:14:39;;;;;;;0.98;0.70;;;;;;;28.13;43.51;99240.72;5090218;28;20123;-70
2022/07/04 00:17:05;;;;;;;0.60;0.50;;;;;;;28.08;43.71;99239.22;5094863;28;20052;-71
2022/07/04 00:19:30;;;;;;;0.98;0.80;;;;;;;28.07;43.72;99234.00;5105502;28;20431;-71
2022/07/04 00:21:56;;;;;;;0.88;0.70;;;;;;;28.07;43.71;99229.16;5101456;28;20131;-71
2022/07/04 00:24:21;;;;;;;1.00;0.60;;;;;;;28.05;43.89;99220.38;5089823;28;20093;-70
2022/07/04 00:26:47;;;;;;;0.70;0.52;;;;;;;28.07;43.77;99239.63;5095721;28;20040;-70
2022/07/04 00:29:12;;;;;;;1.45;0.70;;;;;;;28.02;43.65;99257.81;5110085;28;20040;-70
2022/07/04 00:31:37;;;;;;;0.98;0.60;;;;;;;28.06;43.74;99269.75;5109812;28;20062;-70
2022/07/04 00:34:03;;;;;;;1.10;0.57;;;;;;;28.07;43.80;99264.94;5090338;28;20064;-70
2022/07/04 00:36:28;;;;;;;1.30;0.73;;;;;;;28.06;43.78;99272.56;5081902;28;20040;-70
2022/07/04 00:38:54;;;;;;;0.80;0.60;;;;;;;28.06;43.84;99272.56;5093366;28;20496;-71
2022/07/04 00:41:19;;;;;;;1.17;0.70;;;;;;;28.07;43.69;99287.44;5090687;28;20048;-70
2022/07/04 00:43:59;;;;;;;1.00;0.63;;;;;;;28.05;43.95;99284.25;5089811;28;20127;-70
2022/07/04 00:46:25;;;;;;;0.88;0.50;;;;;;;28.03;43.65;99287.50;5094467;28;20040;-71
2022/07/04 00:48:50;;;;;;;1.40;0.73;;;;;;;28.04;43.87;99288.28;5113312;28;20039;-71
2022/07/04 00:51:16;;;;;;;0.77;0.50;;;;;;;27.99;43.81;99289.56;5106585;28;20057;-70
2022/07/04 00:53:42;;;;;;;1.02;0.60;;;;;;;28.01;43.79;99280.72;5097780;28;20511;-70
2022/07/04 00:56:07;;;;;;;1.00;0.70;;;;;;;28.03;43.72;99290.31;5090428;28;20083;-70
2022/07/04 00:58:33;;;;;;;0.70;0.50;;;;;;;28.07;43.63;99307.09;5109560;28;20046;-70
2022/07/04 01:00:59;;;;;;;0.95;0.60;;;;;;;28.05;43.69;99312.38;5109193;28;20043;-70
2022/07/04 01:03:24;;;;;;;1.00;0.60;;;;;;;28.05;43.63;99320.81;5102698;28;20470;-70
2022/07/04 01:05:51;;;;;;;1.27;0.77;;;;;;;28.07;43.61;99321.97;5097311;28;20040;-70
2022/07/04 01:08:16;;;;;;;0.95;0.60;;;;;;;28.07;43.59;99318.34;5109179;28;20046;-70
2022/07/04 01:10:41;;;;;;;0.70;0.50;;;;;;;28.05;43.80;99323.63;5090644;28;20107;-70
2022/07/04 01:13:07;;;;;;;0.98;0.65;;;;;;;28.07;43.83;99335.22;5090417;28;20082;-70
2022/07/04 01:15:33;;;;;;;1.00;0.60;;;;;;;28.07;43.68;99346.47;5099646;28;20049;-70
2022/07/04 01:17:58;;;;;;;0.77;0.68;;;;;;;28.06;43.56;99342.09;5099806;28;20039;-70
2022/07/04 01:20:23;;;;;;;0.88;0.50;;;;;;;28.07;43.70;99349.28;5109472;28;20035;-70
2022/07/04 01:22:49;;;;;;;0.93;0.77;;;;;;;28.04;43.86;99348.13;5092312;28;20031;-70
2022/07/04 01:25:15;;;;;;;1.00;0.75;;;;;;;28.03;43.98;99338.13;5108002;28;20073;-70
2022/07/04 01:27:41;;;;;;;0.95;0.60;;;;;;;28.05;43.89;99343.31;5091576;28;20464;-70
2022/07/04 01:30:07;;;;;;;0.85;0.52;;;;;;;28.03;43.94;99345.75;5104132;28;20085;-71
2022/07/04 01:32:33;;;;;;;0.88;0.60;;;;;;;28.04;43.94;99352.97;5098321;28;20464;-71
2022/07/04 01:34:58;;;;;;;0.95;0.70;;;;;;;28.02;44.06;99344.16;5090917;28;20504;-70
2022/07/04 01:37:23;;;;;;;0.70;0.60;;;;;;;28.03;43.81;99346.56;5100043;28;20126;-71
2022/07/04 01:39:49;;;;;;;0.90;0.70;;;;;;;27.98;43.98;99339.38;5107995;28;20055;-70
2022/07/04 01:42:14;;;;;;;1.05;0.60;;;;;;;28.02;44.09;99352.59;5102824;28;20666;-71
2022/07/04 01:44:40;;;;;;;1.15;0.60;;;;;;;28.01;43.97;99349.00;5093455;28;20039;-71
2022/07/04 01:47:05;;;;;;;1.08;0.75;;;;;;;27.99;44.23;99326.13;5089119;28;20066;-71
2022/07/04 01:49:31;;;;;;;0.52;0.50;;;;;;;27.96;44.10;99336.22;5102240;28;20044;-70
2022/07/04 01:51:56;;;;;;;1.20;0.77;;;;;;;28.00;44.00;99329.72;5095807;28;20044;-71
2022/07/04 01:54:24;;;;;;;0.70;0.60;;;;;;;27.97;44.01;99326.56;5097886;28;20040;-71
2022/07/04 01:56:50;;;;;;;0.80;0.60;;;;;;;27.96;44.14;99321.34;5103379;28;20047;-71
2022/07/04 01:59:15;;;;;;;1.23;0.60;;;;;;;27.94;44.21;99324.59;5102031;28;20044;-71
2022/07/04 02:01:41;;;;;;;0.80;0.60;;;;;;;27.98;44.01;99319.69;5088167;28;20044;-70
2022/07/04 02:04:07;;;;;;;0.82;0.60;;;;;;;27.98;44.21;99313.28;5084573;28;20055;-71
2022/07/04 02:06:33;;;;;;;0.80;0.65;;;;;;;27.98;44.23;99318.91;5088452;28;20079;-71
2022/07/04 02:09:17;;;;;;;1.08;0.65;;;;;;;27.97;44.16;99298.44;5088381;28;20131;-70
2022/07/04 02:14:30;;;;;;;0.77;0.57;;;;;;;27.97;44.21;99303.25;5095437;28;20527;-71
2022/07/04 02:16:55;;;;;;;1.13;0.70;;;;;;;27.99;44.20;99300.81;5095622;28;20190;-71
2022/07/04 02:19:21;;;;;;;1.00;0.60;;;;;;;28.00;44.44;99296.78;5101656;28;20450;-70
2022/07/04 02:21:47;;;;;;;0.93;0.60;;;;;;;28.01;44.25;99304.00;5093134;28;20048;-70
2022/07/04 02:24:12;;;;;;;1.10;0.80;;;;;;;27.97;44.31;99298.44;5095846;28;20036;-70
2022/07/04 02:26:37;;;;;;;0.75;0.63;;;;;;;28.00;44.35;99298.78;5102690;28;20048;-70
2022/07/04 02:29:03;;;;;;;0.77;0.60;;;;;;;28.01;44.33;99287.16;5099697;28;20043;-71
2022/07/04 02:31:28;;;;;;;1.85;0.70;;;;;;;28.03;44.43;99289.53;5100792;28;20040;-71
2022/07/04 02:33:54;;;;;;;0.80;0.65;;;;;;;27.98;44.43;99300.03;5091973;28;20552;-70
2022/07/04 02:36:19;;;;;;;0.70;0.57;;;;;;;27.99;44.61;99292.38;5105358;28;20040;-70
2022/07/04 02:38:44;;;;;;;0.90;0.70;;;;;;;28.00;44.29;99290.34;5103955;28;20488;-70
2022/07/04 02:41:10;;;;;;;0.73;0.50;;;;;;;28.00;44.61;99279.13;5096625;28;20048;-70
2022/07/04 02:43:35;;;;;;;1.00;0.60;;;;;;;27.98;44.51;99277.53;5102132;28;20040;-70
2022/07/04 02:46:01;;;;;;;0.70;0.60;;;;;;;27.98;44.58;99276.75;5096490;28;20036;-70
2022/07/04 02:48:26;;;;;;;0.95;0.65;;;;;;;28.00;44.54;99279.13;5109868;28;20405;-70
2022/07/04 02:50:51;;;;;;;0.50;0.50;;;;;;;27.98;44.52;99285.97;5109103;28;20514;-70
2022/07/04 02:53:17;;;;;;;0.75;0.63;;;;;;;27.98;44.44;99296.41;5094478;28;20062;-70
2022/07/04 02:55:42;;;;;;;0.88;0.60;;;;;;;27.96;44.54;99302.47;5103286;28;20437;-71
2022/07/04 02:58:07;;;;;;;0.75;0.50;;;;;;;27.96;44.55;99304.50;5111575;28;20090;-70
2022/07/04 03:00:33;;;;;;;1.10;0.63;;;;;;;27.99;44.67;99298.00;5097284;28;20048;-70
2022/07/04 03:02:58;;;;;;;0.73;0.57;;;;;;;28.00;44.56;99287.56;5103207;28;20063;-70
2022/07/04 03:05:24;;;;;;;1.15;0.55;;;;;;;27.97;44.65;99295.63;5104767;28;20499;-70
2022/07/04 03:07:49;;;;;;;0.90;0.60;;;;;;;27.94;44.74;99295.69;5111214;28;20031;-70
2022/07/04 03:10:15;;;;;;;1.20;0.70;;;;;;;27.95;44.82;99286.81;5111725;28;20425;-71
2022/07/04 03:12:40;;;;;;;0.70;0.60;;;;;;;27.95;44.80;99281.22;5110579;28;20423;-71
2022/07/04 03:15:06;;;;;;;0.60;0.50;;;;;;;27.97;44.54;99286.41;5095753;28;20058;-70
2022/07/04 03:17:31;;;;;;;1.15;0.60;;;;;;;27.97;44.65;99287.19;5090967;28;20036;-70
2022/07/04 03:19:58;;;;;;;0.60;0.50;;;;;;;27.97;44.50;99284.38;5105186;28;20089;-70
2022/07/04 03:22:23;;;;;;;0.85;0.60;;;;;;;27.97;44.68;99284.38;5099693;28;20090;-71
2022/07/04 03:24:48;;;;;;;0.93;0.60;;;;;;;27.98;44.59;99288.78;5111114;28;20468;-71
2022/07/04 03:27:14;;;;;;;1.45;0.60;;;;;;;27.96;44.72;99288.41;5105279;28;20071;-70
2022/07/04 03:29:39;;;;;;;1.30;0.75;;;;;;;27.93;44.86;99289.28;5091907;28;20036;-70
2022/07/04 03:32:05;;;;;;;0.80;0.60;;;;;;;27.93;44.74;99291.28;5092764;28;20093;-71
2022/07/04 03:34:30;;;;;;;0.93;0.60;;;;;;;27.91;44.81;99288.88;5093543;28;20052;-70
2022/07/04 03:36:56;;;;;;;0.70;0.50;;;;;;;27.92;44.78;99284.84;5093389;28;20511;-71
2022/07/04 03:39:21;;;;;;;0.75;0.55;;;;;;;27.92;44.96;99281.25;5108062;28;20040;-71
2022/07/04 03:41:47;;;;;;;0.68;0.55;;;;;;;27.93;44.91;99291.28;5110902;28;20460;-70
2022/07/04 03:44:13;;;;;;;1.30;0.80;;;;;;;27.95;44.83;99291.66;5110639;28;20036;-71
2022/07/04 03:46:38;;;;;;;0.80;0.60;;;;;;;27.94;44.97;99282.44;5111061;28;20036;-70
2022/07/04 03:49:03;;;;;;;0.55;0.43;;;;;;;27.94;44.85;99279.63;5110795;28;20070;-71
2022/07/04 03:51:29;;;;;;;1.00;0.65;;;;;;;27.93;44.92;99286.47;5102418;28;20083;-71
2022/07/04 03:53:55;;;;;;;0.70;0.50;;;;;;;27.93;44.97;99283.66;5089371;28;20040;-71
2022/07/04 03:56:20;;;;;;;0.90;0.60;;;;;;;27.91;45.27;99293.72;5110778;28;20035;-70
2022/07/04 03:58:48;;;;;;;0.70;0.60;;;;;;;27.91;44.87;99308.56;5096280;28;20071;-70
2022/07/04 04:01:16;;;;;;;1.13;0.68;;;;;;;27.88;45.03;99303.81;5100434;28;20572;-70
2022/07/04 04:06:26;;;;;;;0.70;0.50;;;;;;;27.89;44.87;99310.22;5095132;28;20108;-70
2022/07/04 04:08:51;;;;;;;0.70;0.57;;;;;;;27.90;44.91;99312.59;5094936;28;20449;-70
2022/07/04 04:11:17;;;;;;;1.77;0.52;;;;;;;27.88;44.78;99306.63;5095673;28;20142;-70
2022/07/04 04:13:42;;;;;;;0.70;0.52;;;;;;;27.89;44.96;99325.06;5101923;28;20042;-70
2022/07/04 04:16:08;;;;;;;0.70;0.50;;;;;;;27.87;45.17;99333.16;5109954;28;20401;-70
2022/07/04 04:18:33;;;;;;;0.93;0.60;;;;;;;27.89;44.92;99330.69;5093322;28;20040;-70
2022/07/04 04:20:59;;;;;;;0.82;0.60;;;;;;;27.90;44.90;99337.91;5095244;28;20104;-70
2022/07/04 04:23:24;;;;;;;0.70;0.52;;;;;;;27.87;45.08;99333.16;5110299;28;20047;-70
2022/07/04 04:25:49;;;;;;;0.80;0.60;;;;;;;27.88;44.78;99342.38;5109976;28;20127;-70
2022/07/04 04:28:15;;;;;;;0.80;0.60;;;;;;;27.86;44.93;99345.63;5104265;28;20123;-70
2022/07/04 04:30:40;;;;;;;1.00;0.60;;;;;;;27.90;44.90;99354.78;5092788;28;20122;-71
2022/07/04 04:33:06;;;;;;;1.42;0.68;;;;;;;27.91;44.82;99356.38;5110176;28;20052;-71
2022/07/04 04:35:31;;;;;;;0.40;0.40;;;;;;;27.87;45.03;99361.25;5098057;28;20043;-71
2022/07/04 04:37:56;;;;;;;0.85;0.50;;;;;;;27.91;44.96;99359.19;5088946;28;20503;-70
2022/07/04 04:40:22;;;;;;;0.63;0.52;;;;;;;27.89;44.90;99356.00;5089437;28;20087;-70
2022/07/04 04:42:47;;;;;;;0.93;0.60;;;;;;;27.88;45.00;99351.59;5098108;28;20099;-70
2022/07/04 04:45:13;;;;;;;1.13;0.60;;;;;;;27.90;45.04;99357.59;5109080;28;20403;-71
2022/07/04 04:47:38;;;;;;;0.70;0.50;;;;;;;27.86;45.11;99356.88;5086839;28;20042;-71
2022/07/04 04:50:04;;;;;;;1.00;0.70;;;;;;;27.89;45.15;99360.84;5094572;28;20078;-70
2022/07/04 04:52:30;;;;;;;0.88;0.60;;;;;;;27.90;45.22;99363.22;5105492;28;20059;-70
2022/07/04 04:54:56;;;;;;;1.65;0.52;;;;;;;27.87;45.22;99372.50;5108876;28;20088;-70
2022/07/04 04:57:21;;;;;;;0.68;0.60;;;;;;;27.90;45.23;99368.03;5109763;28;20044;-70
2022/07/04 04:59:47;;;;;;;0.77;0.60;;;;;;;27.90;45.37;99365.22;5107412;28;20555;-70
2022/07/04 05:02:12;;;;;;;0.50;0.40;;;;;;;27.92;45.27;99366.38;5098292;28;20085;-70
2022/07/04 05:04:37;;;;;;;0.70;0.60;;;;;;;27.95;45.34;99359.13;5098493;28;20044;-70
2022/07/04 05:07:03;;;;;;;0.90;0.60;;;;;;;27.95;45.24;99359.94;5103423;28;20097;-70
2022/07/04 05:09:28;;;;;;;0.45;0.45;;;;;;;28.01;45.19;99362.25;5089155;28;20046;-71
2022/07/04 05:11:54;;;;;;;1.42;0.57;;;;;;;27.98;45.41;99352.66;5103187;28;20044;-70
2022/07/04 05:14:19;;;;;;;0.98;0.60;;;;;;;28.01;45.21;99370.69;5098529;28;20341;-70
2022/07/04 05:16:45;;;;;;;0.70;0.50;;;;;;;28.05;45.26;99365.81;5109401;28;20043;-70
2022/07/04 05:19:11;;;;;;;0.50;0.40;;;;;;;28.05;45.06;99365.81;5108940;28;20120;-70
2022/07/04 05:21:36;;;;;;;0.90;0.63;;;;;;;28.08;45.35;99370.59;5109158;28;20104;-70
2022/07/04 05:24:01;;;;;;;1.45;0.60;;;;;;;28.09;45.19;99363.75;5107939;28;20071;-70
2022/07/04 05:26:27;;;;;;;0.68;0.50;;;;;;;28.12;45.18;99360.06;5109144;28;20067;-70
2022/07/04 05:28:52;;;;;;;0.98;0.70;;;;;;;28.13;45.23;99364.47;5109160;28;20465;-70
2022/07/04 05:31:18;;;;;;;0.77;0.60;;;;;;;28.10;45.26;99363.31;5109509;28;20131;-70
2022/07/04 05:33:43;;;;;;;1.65;0.70;;;;;;;28.15;45.28;99373.28;5106770;28;20046;-70
2022/07/04 05:36:09;;;;;;;0.65;0.52;;;;;;;28.16;45.10;99366.44;5108031;28;20119;-70
2022/07/04 05:38:34;;;;;;;1.13;0.70;;;;;;;28.18;45.49;99369.63;5108983;28;20393;-71
2022/07/04 05:41:01;;;;;;;1.60;0.60;;;;;;;28.15;45.55;99368.47;5108974;28;20055;-71
2022/07/04 05:43:26;;;;;;;15.13;0.98;;;;;;;28.15;45.70;99365.66;5101390;28;20436;-71
2022/07/04 05:45:52;;;;;;;17.75;1.08;;;;;;;28.19;45.79;99365.56;5103490;28;20046;-71
2022/07/04 05:48:17;;;;;;;19.55;1.67;;;;;;;28.20;45.72;99367.16;5084980;28;20101;-72
2022/07/04 05:50:43;;;;;;;16.55;1.67;;;;;;;28.20;45.82;99355.91;5097378;28;20066;-72
2022/07/04 05:53:08;;;;;;;16.52;1.35;;;;;;;28.22;45.56;99365.53;5095216;28;20048;-72
2022/07/04 05:55:34;;;;;;;14.98;1.27;;;;;;;28.26;45.50;99359.84;5092043;28;20044;-72
2022/07/04 05:58:00;;;;;;;22.00;1.70;;;;;;;28.27;45.75;99366.25;5095726;28;20420;-72
2022/07/04 06:00:26;;;;;;;17.63;1.92;;;;;;;28.25;45.60;99364.66;5092213;28;20492;-72
2022/07/04 06:02:51;;;;;;;14.32;1.30;;;;;;;28.30;44.97;99368.22;5103023;28;20137;-72
2022/07/04 06:05:17;;;;;;;8.48;1.08;;;;;;;28.27;45.79;99366.25;5092224;28;20075;-72
2022/07/04 06:07:42;;;;;;;10.48;1.20;;;;;;;28.12;46.26;99365.69;5103405;28;20048;-70
2022/07/04 06:10:08;;;;;;;11.63;1.30;;;;;;;28.04;46.28;99365.00;5112595;28;20040;-69
2022/07/04 06:12:35;;;;;;;9.20;1.17;;;;;;;28.04;46.24;99365.00;5112565;28;20051;-69
2022/07/04 06:15:00;;;;;;;5.72;1.10;;;;;;;28.03;46.08;99359.81;5097805;28;20036;-72
2022/07/04 06:17:26;;;;;;;7.70;1.10;;;;;;;28.03;45.92;99352.19;5099196;28;20051;-72
2022/07/04 06:19:51;;;;;;;4.18;0.90;;;;;;;28.04;46.21;99352.97;5095058;28;20047;-72
2022/07/04 06:22:17;;;;;;;6.35;1.40;;;;;;;28.03;45.99;99345.75;5097055;28;20036;-72
2022/07/04 06:24:42;;;;;;;8.43;1.20;;;;;;;28.02;45.84;99347.78;5107393;28;20040;-72
2022/07/04 06:27:08;;;;;;;5.13;0.98;;;;;;;28.07;45.71;99349.28;5110253;28;20044;-72
2022/07/04 06:29:33;;;;;;;5.13;1.00;;;;;;;28.10;45.55;99348.44;5097584;28;20056;-72
2022/07/04 06:31:59;;;;;;;4.75;1.33;;;;;;;28.11;45.50;99341.59;5101373;28;20051;-72
2022/07/04 06:37:08;;;;;;;2.05;0.80;;;;;;;28.10;45.47;99352.06;5091529;28;20051;-72
2022/07/04 06:39:33;;;;;;;1.52;0.82;;;;;;;28.07;45.26;99352.09;5101994;28;20048;-72
2022/07/04 06:41:59;;;;;;;3.83;0.95;;;;;;;28.07;45.30;99346.47;5111523;28;20044;-72
2022/07/04 06:44:24;;;;;;;3.60;0.90;;;;;;;28.08;45.04;99343.25;5111823;28;20036;-72
2022/07/04 06:46:50;;;;;;;1.70;0.70;;;;;;;28.07;45.26;99336.03;5109478;28;20098;-72
2022/07/04 06:49:16;;;;;;;3.33;0.85;;;;;;;28.06;45.24;99328.81;5102875;28;20078;-72
2022/07/04 06:51:42;;;;;;;0.98;0.60;;;;;;;28.07;45.25;99329.59;5111608;28;20047;-72
2022/07/04 06:54:07;;;;;;;2.33;0.70;;;;;;;28.05;45.51;99324.41;5105302;28;20093;-72
2022/07/04 06:56:33;;;;;;;1.85;0.75;;;;;;;28.07;45.58;99319.16;5098404;28;20100;-72
2022/07/04 06:58:58;;;;;;;2.70;0.70;;;;;;;28.08;45.72;99317.97;5103393;28;20035;-72
2022/07/04 07:01:23;;;;;;;1.27;0.95;;;;;;;28.10;45.47;99312.69;5098558;28;20036;-72
2022/07/04 07:03:49;;;;;;;3.75;0.80;;;;;;;28.08;45.04;99314.34;5091874;28;20036;-65
2022/07/04 07:06:14;;;;;;;1.70;0.90;;;;;;;28.06;45.11;99305.53;5108012;28;20040;-64
2022/07/04 07:08:40;;;;;;;4.65;1.10;;;;;;;28.08;45.19;99303.09;5105182;28;20050;-66
2022/07/04 07:11:16;;;;;;;3.00;0.90;;;;;;;28.07;44.93;99312.72;5111164;28;20048;-66
2022/07/04 07:13:44;;;;;;;3.60;1.25;;;;;;;28.10;44.99;99311.91;5105289;28;20572;-65
2022/07/04 07:16:10;;;;;;;3.28;1.33;;;;;;;27.84;43.61;99316.31;5106046;28;20046;-65
2022/07/04 07:18:36;;;;;;;3.35;1.48;;;;;;;27.53;43.42;99313.56;5105380;28;20181;-66
2022/07/04 07:21:01;;;;;;;3.47;1.30;;;;;;;27.25;44.10;99325.19;5099449;28;20115;-65
2022/07/04 07:23:27;;;;;;;2.95;1.52;;;;;;;26.97;44.21;99312.25;5102768;28;20065;-65
2022/07/04 07:25:52;;;;;;;6.53;1.40;;;;;;;26.73;43.66;99312.13;5092890;28;20047;-65
2022/07/04 07:28:18;;;;;;;3.05;1.30;;;;;;;26.60;47.37;99325.91;5102068;28;20043;-66
2022/07/04 07:30:44;;;;;;;4.07;1.30;;;;;;;26.70;48.61;99318.56;5116769;28;20042;-65
2022/07/04 07:33:10;;;;;;;2.75;1.50;;;;;;;26.75;46.85;99315.31;5112663;28;20047;-65
2022/07/04 07:35:37;;;;;;;3.63;1.60;;;;;;;26.69;46.20;99316.19;5105841;28;20088;-65
2022/07/04 07:38:02;;;;;;;2.78;1.45;;;;;;;26.56;45.58;99319.50;5112395;28;20043;-65
2022/07/04 07:40:28;;;;;;;2.75;1.27;;;;;;;26.50;45.09;99311.97;5109781;28;20042;-65
2022/07/04 07:42:54;;;;;;;2.90;1.10;;;;;;;26.37;44.69;99320.09;5105852;28;20096;-65
2022/07/04 07:45:20;;;;;;;6.32;1.60;;;;;;;26.32;44.90;99320.53;5100066;28;20040;-65
2022/07/04 07:47:46;;;;;;;3.05;1.33;;;;;;;26.25;45.60;99334.63;5104081;28;20035;-65
2022/07/04 07:50:12;;;;;;;3.78;1.45;;;;;;;26.31;48.58;99321.75;5102884;28;20036;-65
2022/07/04 07:52:37;;;;;;;2.90;1.30;;;;;;;26.43;49.30;99314.84;5092585;28;20403;-65
2022/07/04 07:55:03;;;;;;;3.95;1.30;;;;;;;26.46;46.35;99305.59;5099280;28;20068;-65
2022/07/04 07:57:29;;;;;;;3.05;1.50;;;;;;;26.41;45.56;99317.28;5107360;28;20051;-65
2022/07/04 07:59:55;;;;;;;3.78;1.48;;;;;;;26.31;45.62;99319.75;5099701;28;20044;-65
2022/07/04 08:04:33;;;;;;;3.20;1.58;;;;;;;26.38;45.02;99320.88;5102619;28;20052;-65
2022/07/04 08:05:07;;;;;;;3.22;1.50;;;;;;;26.32;46.97;99315.72;5095090;28;20044;-65
2022/07/04 08:07:33;;;;;;;3.03;1.52;;;;;;;26.42;48.49;99318.84;5109361;28;20047;-65
2022/07/04 08:09:58;;;;;;;5.25;1.70;;;;;;;26.52;46.78;99317.97;5099462;28;20050;-65
2022/07/04 08:12:24;;;;;;;1.90;1.20;;;;;;;26.47;44.88;99319.22;5107549;28;20244;-65
2022/07/04 08:14:49;;;;;;;6.28;1.40;;;;;;;26.42;45.46;99311.25;5112085;28;20054;-65
2022/07/04 08:17:15;;;;;;;7.70;1.80;;;;;;;26.51;46.04;99310.78;5103799;28;20051;-72
2022/07/04 08:19:40;;;;;;;5.05;1.83;;;;;;;26.52;45.37;99303.94;5106105;28;20055;-70
2022/07/04 08:22:05;;;;;;;4.72;1.75;;;;;;;26.50;44.87;99309.94;5097670;28;20288;-70
2022/07/04 08:24:31;;;;;;;6.65;1.67;;;;;;;26.51;44.77;99305.97;5111443;28;20508;-70
2022/07/04 08:26:57;;;;;;;3.03;1.65;;;;;;;26.45;44.53;99304.03;5101092;28;20055;-71
2022/07/04 08:29:22;;;;;;;6.20;1.88;;;;;;;26.39;43.04;99294.44;5094807;28;20492;-72
2022/07/04 08:31:48;;;;;;;6.53;1.40;;;;;;;26.23;46.61;99304.19;5097746;28;20051;-72
2022/07/04 08:34:13;;;;;;;5.22;1.70;;;;;;;26.18;47.92;99304.63;5084609;28;20048;-73
2022/07/04 08:36:39;;;;;;;2.97;1.50;;;;;;;26.21;48.59;99298.19;5076737;28;20044;-72
2022/07/04 08:39:05;;;;;;;2.78;1.30;;;;;;;26.32;49.11;99292.50;5086515;28;20054;-73
2022/07/04 08:41:39;;;;;;;2.88;1.40;;;;;;;26.32;48.04;99289.69;5083711;28;20051;-72
2022/07/04 08:44:07;;;;;;;2.92;1.30;;;;;;;26.26;46.08;99283.72;5089265;28;20040;-73
2022/07/04 08:46:35;;;;;;;2.17;1.30;;;;;;;26.08;49.08;99288.72;5090597;28;20047;-72
2022/07/04 08:49:06;;;;;;;2.00;1.13;;;;;;;26.08;49.63;99288.72;5086425;28;20043;-73
2022/07/04 08:51:43;;;;;;;3.20;1.30;;;;;;;26.18;50.06;99295.44;5082456;28;20055;-72
2022/07/04 08:59:40;;;;;;;3.83;1.05;;;;;;;25.96;49.10;99308.84;5085934;28;20097;-72
2022/07/04 09:02:06;;;;;;;2.05;1.17;;;;;;;26.03;50.04;99308.78;5086359;28;20047;-72
2022/07/04 09:04:32;;;;;;;2.17;1.20;;;;;;;26.17;50.08;99302.25;5075318;28;20688;-73
2022/07/04 09:06:57;;;;;;;2.20;1.25;;;;;;;26.22;48.63;99305.41;5084340;28;20158;-72
2022/07/04 09:09:24;;;;;;;3.58;1.05;;;;;;;26.10;47.19;99307.91;5085492;28;20507;-72
2022/07/04 09:11:50;;;;;;;3.15;1.00;;;;;;;26.00;46.95;99310.41;5068381;28;20058;-72
2022/07/04 09:14:15;;;;;;;1.50;0.90;;;;;;;25.92;48.95;99313.66;5088445;28;20052;-72
2022/07/04 09:16:41;;;;;;;2.10;1.10;;;;;;;25.97;49.72;99311.22;5090703;28;20044;-73
2022/07/04 09:19:19;;;;;;;1.38;1.00;;;;;;;26.13;50.00;99323.91;5089043;28;20086;-71
2022/07/04 09:21:46;;;;;;;1.65;1.00;;;;;;;26.15;47.90;99327.06;5083447;28;20048;-70
2022/07/04 09:24:11;;;;;;;1.40;0.90;;;;;;;26.01;46.52;99331.63;5090047;28;20047;-70
2022/07/04 09:26:43;;;;;;;1.83;1.10;;;;;;;25.90;49.31;99336.50;5084607;28;20489;-70
2022/07/04 09:29:09;;;;;;;1.60;1.00;;;;;;;25.93;49.93;99332.88;5082978;28;20055;-70
2022/07/04 09:31:36;;;;;;;2.00;1.15;;;;;;;26.07;50.41;99334.75;5081403;28;21014;-70
2022/07/04 09:34:04;;;;;;;1.20;0.90;;;;;;;26.17;48.94;99339.50;5083962;28;20158;-70
2022/07/04 09:36:35;;;;;;;1.63;0.85;;;;;;;26.06;47.26;99341.56;5089576;28;20451;-70
2022/07/04 09:39:15;;;;;;;3.08;1.00;;;;;;;25.89;49.53;99348.13;5084378;28;20517;-71
2022/07/04 09:41:50;;;;;;;1.58;0.93;;;;;;;25.91;50.17;99346.50;5087390;28;20055;-71
2022/07/04 09:44:15;;;;;;;1.35;0.90;;;;;;;26.00;50.12;99360.03;5086590;28;20040;-70
2022/07/04 09:46:41;;;;;;;1.35;0.80;;;;;;;26.14;49.03;99353.53;5084345;28;20100;-70
2022/07/04 09:49:06;;;;;;;1.00;0.82;;;;;;;26.12;48.20;99339.94;5087665;28;20048;-71
2022/07/04 09:51:49;;;;;;;1.40;0.73;;;;;;;25.96;47.01;99334.06;5078867;28;20054;-71
2022/07/04 09:54:15;;;;;;;1.00;0.80;;;;;;;25.87;49.56;99328.13;5085806;28;20040;-71
2022/07/04 09:56:48;;;;;;;1.50;1.10;;;;;;;25.91;50.27;99326.06;5085145;28;20449;-70
2022/07/04 09:59:13;;;;;;;;;;;;;;;26.05;50.09;99323.97;5087028;28;20051;-70
2022/07/04 10:01:39;;;;;;;1.65;0.80;;;;;;;26.15;48.88;99330.72;5083984;28;19923;-73
2022/07/04 10:04:06;;;;;;;1.20;0.80;;;;;;;26.13;47.76;99337.91;5084100;28;20054;-72
2022/07/04 10:06:33;;;;;;;1.98;1.00;;;;;;;25.99;48.15;99334.00;5073977;28;20055;-72
2022/07/04 10:09:15;;;;;;;1.88;1.08;;;;;;;25.90;50.30;99339.28;5082381;28;20464;-72
2022/07/04 10:11:42;;;;;;;3.63;0.90;;;;;;;25.97;50.53;99344.06;5084443;28;20078;-72
2022/07/04 10:14:10;;;;;;;2.38;1.13;;;;;;;26.10;50.60;99322.72;5092153;28;20047;-72
2022/07/04 10:16:38;;;;;;;2.10;0.82;;;;;;;26.17;48.44;99303.03;5072316;28;20056;-72
2022/07/04 10:19:05;;;;;;;1.48;0.80;;;;;;;26.00;47.62;99302.00;5104282;28;20096;-72
2022/07/04 10:21:31;;;;;;;0.90;0.60;;;;;;;25.93;49.86;99309.63;5106445;28;20080;-72
2022/07/04 10:23:57;;;;;;;0.85;0.70;;;;;;;25.97;50.58;99313.22;5100923;28;20074;-72
2022/07/04 10:26:23;;;;;;;1.27;0.80;;;;;;;26.10;50.51;99303.09;5095935;28;20432;-72
2022/07/04 10:28:52;;;;;;;1.30;0.80;;;;;;;26.16;48.99;99286.66;5085155;28;20119;-72
2022/07/04 10:31:23;;;;;;;0.93;0.63;;;;;;;26.09;48.09;99279.09;5100215;28;20051;-72
2022/07/04 10:33:49;;;;;;;1.25;0.80;;;;;;;25.91;47.64;99267.22;5096801;28;20043;-72
2022/07/04 10:36:16;;;;;;;2.25;0.80;;;;;;;25.82;48.94;99267.72;5095754;28;20477;-72
2022/07/04 10:38:48;;;;;;;1.20;0.82;;;;;;;25.81;50.15;99265.31;5097147;28;20046;-72
2022/07/04 10:41:14;;;;;;;1.05;0.80;;;;;;;25.93;50.25;99256.41;5099145;28;20031;-72
2022/07/04 10:43:56;;;;;;;2.65;0.88;;;;;;;26.09;50.35;99251.06;5104523;28;20111;-70
2022/07/04 10:46:25;;;;;;;1.27;0.90;;;;;;;26.16;48.74;99247.41;5097439;28;20047;-71
2022/07/04 10:49:07;;;;;;;1.58;1.00;;;;;;;26.05;47.32;99258.69;5105266;28;20059;-71
2022/07/04 10:51:52;;;;;;;1.27;0.82;;;;;;;25.90;49.56;99271.25;5095676;28;20044;-71
2022/07/04 10:54:32;;;;;;;1.05;0.75;;;;;;;25.92;50.31;99263.22;5101130;28;20118;-71
2022/07/04 10:57:11;;;;;;;1.80;0.90;;;;;;;26.03;50.45;99242.31;5093880;28;20796;-70
2022/07/04 10:59:38;;;;;;;0.95;0.80;;;;;;;26.21;49.95;99232.91;5080000;28;20043;-70
2022/07/04 11:02:03;;;;;;;0.95;0.70;;;;;;;26.16;48.27;99222.16;5081846;28;20468;-70
2022/07/04 11:05:00;;;;;;;1.15;0.80;;;;;;;25.96;48.79;99219.94;5092331;28;20530;-70
2022/07/04 11:07:39;;;;;;;1.33;0.90;;;;;;;25.89;50.08;99220.00;5091309;28;20751;-70
2022/07/04 11:10:33;;;;;;;1.10;0.80;;;;;;;25.96;50.56;99219.16;5094169;28;20043;-71
2022/07/04 11:12:56;;;;;;;1.35;0.90;;;;;;;26.11;50.22;99205.78;5100333;28;20048;-70
2022/07/04 11:15:24;;;;;;;1.55;0.80;;;;;;;26.17;48.34;99213.34;5094454;28;20396;-73
2022/07/04 11:17:51;;;;;;;1.25;0.90;;;;;;;26.09;46.50;99211.03;5098086;28;20040;-72
2022/07/04 11:20:18;;;;;;;0.60;0.60;;;;;;;25.92;49.89;99205.16;5101304;28;20553;-73
2022/07/04 11:22:44;;;;;;;1.00;0.70;;;;;;;25.91;50.70;99213.97;5083231;28;20044;-71
2022/07/04 11:25:13;;;;;;;1.25;0.88;;;;;;;26.02;50.69;99215.47;5098178;28;20104;-72
2022/07/04 11:27:39;;;;;;;1.58;0.90;;;;;;;26.10;49.17;99223.81;5105420;28;20466;-71
2022/07/04 11:30:05;;;;;;;1.15;0.80;;;;;;;26.02;47.42;99207.06;5093477;28;20120;-72
2022/07/04 11:32:33;;;;;;;1.35;0.90;;;;;;;25.92;50.06;99212.78;5097678;28;20044;-72
2022/07/04 11:34:58;;;;;;;1.17;0.80;;;;;;;25.91;50.59;99200.75;5100207;28;20398;-72
2022/07/04 11:37:24;;;;;;;1.08;0.70;;;;;;;26.03;50.76;99177.03;5094252;28;20044;-72
2022/07/04 11:45:02;;;;;;;1.38;0.90;;;;;;;26.12;50.13;99176.53;5099526;28;20518;-72
2022/07/04 11:45:48;;;;;;;1.50;1.10;;;;;;;25.99;50.23;99176.28;5098979;28;20503;-71
2022/07/04 11:48:25;;;;;;;1.40;1.00;;;;;;;25.99;51.51;99157.44;5104140;28;20071;-71